sensor_id;sensor_type;location;lat;lon;timestamp;temperature;humidity
67777;DHT22;54576;52.020;5.536;2023-08-06T00:00:07;16.00;99.90
67777;DHT22;54576;52.020;5.536;2023-08-06T00:02:33;16.00;99.90
67777;DHT22;54576;52.020;5.536;2023-08-06T00:05:02;16.00;99.90
67777;DHT22;54576;52.020;5.536;2023-08-06T00:07:28;16.00;99.90
67777;DHT22;54576;52.020;5.536;2023-08-06T00:09:53;16.00;99.90
67777;DHT22;54576;52.020;5.536;2023-08-06T00:12:19;16.00;99.90
67777;DHT22;54576;52.020;5.536;2023-08-06T00:14:44;16.00;99.90
67777;DHT22;54576;52.020;5.536;2023-08-06T00:17:10;16.00;99.90
67777;DHT22;54576;52.020;5.536;2023-08-06T00:19:36;16.00;99.90
67777;DHT22;54576;52.020;5.536;2023-08-06T00:22:01;16.00;99.90
67777;DHT22;54576;52.020;5.536;2023-08-06T00:24:27;15.90;99.90
67777;DHT22;54576;52.020;5.536;2023-08-06T00:26:53;15.90;99.90
67777;DHT22;54576;52.020;5.536;2023-08-06T00:29:19;15.90;99.90
67777;DHT22;54576;52.020;5.536;2023-08-06T00:31:44;15.90;99.90
67777;DHT22;54576;52.020;5.536;2023-08-06T00:34:10;15.90;99.90
67777;DHT22;54576;52.020;5.536;2023-08-06T00:36:36;16.00;99.90
67777;DHT22;54576;52.020;5.536;2023-08-06T00:39:01;15.90;99.90
67777;DHT22;54576;52.020;5.536;2023-08-06T00:43:54;16.00;99.90
67777;DHT22;54576;52.020;5.536;2023-08-06T00:46:20;16.00;99.90
67777;DHT22;54576;52.020;5.536;2023-08-06T00:48:46;16.00;99.90
67777;DHT22;54576;52.020;5.536;2023-08-06T00:51:12;15.90;99.90
67777;DHT22;54576;52.020;5.536;2023-08-06T00:53:39;16.00;99.90
67777;DHT22;54576;52.020;5.536;2023-08-06T01:03:23;16.00;99.90
67777;DHT22;54576;52.020;5.536;2023-08-06T01:05:49;16.00;99.90
67777;DHT22;54576;52.020;5.536;2023-08-06T01:13:46;16.10;99.90
67777;DHT22;54576;52.020;5.536;2023-08-06T01:16:20;16.10;99.90
67777;DHT22;54576;52.020;5.536;2023-08-06T01:18:47;16.10;99.90
67777;DHT22;54576;52.020;5.536;2023-08-06T01:21:15;16.00;99.90
67777;DHT22;54576;52.020;5.536;2023-08-06T01:23:42;16.00;99.90
67777;DHT22;54576;52.020;5.536;2023-08-06T01:29:07;16.10;99.90
67777;DHT22;54576;52.020;5.536;2023-08-06T01:34:06;16.10;99.90
67777;DHT22;54576;52.020;5.536;2023-08-06T01:36:35;15.90;99.90
67777;DHT22;54576;52.020;5.536;2023-08-06T01:39:01;15.90;99.90
67777;DHT22;54576;52.020;5.536;2023-08-06T02:35:01;15.80;99.90
67777;DHT22;54576;52.020;5.536;2023-08-06T02:42:19;15.90;99.90
67777;DHT22;54576;52.020;5.536;2023-08-06T02:44:45;15.70;99.90
67777;DHT22;54576;52.020;5.536;2023-08-06T02:47:10;15.70;99.90
67777;DHT22;54576;52.020;5.536;2023-08-06T02:49:36;15.90;99.90
67777;DHT22;54576;52.020;5.536;2023-08-06T02:52:01;15.70;99.90
67777;DHT22;54576;52.020;5.536;2023-08-06T02:56:53;15.80;99.90
67777;DHT22;54576;52.020;5.536;2023-08-06T04:27:10;16.20;99.90
67777;DHT22;54576;52.020;5.536;2023-08-06T04:39:25;16.20;99.90
67777;DHT22;54576;52.020;5.536;2023-08-06T04:46:42;16.10;99.90
67777;DHT22;54576;52.020;5.536;2023-08-06T06:26:40;16.20;99.90
67777;DHT22;54576;52.020;5.536;2023-08-06T06:29:06;16.20;99.90
67777;DHT22;54576;52.020;5.536;2023-08-06T06:33:58;16.10;99.90
67777;DHT22;54576;52.020;5.536;2023-08-06T06:36:23;16.20;99.90
67777;DHT22;54576;52.020;5.536;2023-08-06T06:38:49;16.20;99.90
67777;DHT22;54576;52.020;5.536;2023-08-06T06:41:17;16.20;99.90
67777;DHT22;54576;52.020;5.536;2023-08-06T06:43:43;16.10;99.90
67777;DHT22;54576;52.020;5.536;2023-08-06T06:46:09;16.20;99.90
67777;DHT22;54576;52.020;5.536;2023-08-06T06:48:34;16.10;99.90
67777;DHT22;54576;52.020;5.536;2023-08-06T06:51:00;16.20;99.90
67777;DHT22;54576;52.020;5.536;2023-08-06T06:53:25;16.20;99.90
67777;DHT22;54576;52.020;5.536;2023-08-06T06:55:55;16.20;99.90
67777;DHT22;54576;52.020;5.536;2023-08-06T06:58:20;16.20;99.90
67777;DHT22;54576;52.020;5.536;2023-08-06T07:00:49;16.20;99.90
67777;DHT22;54576;52.020;5.536;2023-08-06T07:03:15;16.20;99.90
67777;DHT22;54576;52.020;5.536;2023-08-06T07:05:41;16.20;99.90
67777;DHT22;54576;52.020;5.536;2023-08-06T07:08:07;16.20;99.90
67777;DHT22;54576;52.020;5.536;2023-08-06T07:10:32;16.20;99.90
67777;DHT22;54576;52.020;5.536;2023-08-06T07:12:58;16.20;99.90
67777;DHT22;54576;52.020;5.536;2023-08-06T07:15:23;16.20;99.90
67777;DHT22;54576;52.020;5.536;2023-08-06T07:17:49;16.30;99.90
67777;DHT22;54576;52.020;5.536;2023-08-06T07:20:15;16.20;99.90
67777;DHT22;54576;52.020;5.536;2023-08-06T07:22:40;16.30;99.90
67777;DHT22;54576;52.020;5.536;2023-08-06T07:25:06;16.30;99.90
67777;DHT22;54576;52.020;5.536;2023-08-06T07:27:32;16.30;99.90
67777;DHT22;54576;52.020;5.536;2023-08-06T07:29:58;16.30;99.90
67777;DHT22;54576;52.020;5.536;2023-08-06T07:32:24;16.30;99.90
67777;DHT22;54576;52.020;5.536;2023-08-06T07:34:49;16.30;99.90
67777;DHT22;54576;52.020;5.536;2023-08-06T07:37:15;16.30;99.90
67777;DHT22;54576;52.020;5.536;2023-08-06T07:39:40;16.30;99.90
67777;DHT22;54576;52.020;5.536;2023-08-06T07:42:07;16.30;99.90
67777;DHT22;54576;52.020;5.536;2023-08-06T07:44:33;16.30;99.90
67777;DHT22;54576;52.020;5.536;2023-08-06T07:46:59;16.30;99.90
67777;DHT22;54576;52.020;5.536;2023-08-06T07:49:24;16.30;99.90
67777;DHT22;54576;52.020;5.536;2023-08-06T07:51:50;16.30;99.90
67777;DHT22;54576;52.020;5.536;2023-08-06T07:54:17;16.30;99.90
67777;DHT22;54576;52.020;5.536;2023-08-06T07:56:42;16.40;99.90
67777;DHT22;54576;52.020;5.536;2023-08-06T07:59:08;16.40;99.90
67777;DHT22;54576;52.020;5.536;2023-08-06T08:01:34;16.40;99.90
67777;DHT22;54576;52.020;5.536;2023-08-06T08:04:00;16.40;99.90
67777;DHT22;54576;52.020;5.536;2023-08-06T08:06:25;16.40;99.90
67777;DHT22;54576;52.020;5.536;2023-08-06T08:08:51;16.40;99.90
67777;DHT22;54576;52.020;5.536;2023-08-06T08:11:17;16.40;99.90
67777;DHT22;54576;52.020;5.536;2023-08-06T08:13:44;16.40;99.90
67777;DHT22;54576;52.020;5.536;2023-08-06T08:16:10;16.40;99.90
67777;DHT22;54576;52.020;5.536;2023-08-06T08:18:35;16.40;99.90
67777;DHT22;54576;52.020;5.536;2023-08-06T08:21:01;16.40;99.90
67777;DHT22;54576;52.020;5.536;2023-08-06T08:23:26;16.50;99.90
67777;DHT22;54576;52.020;5.536;2023-08-06T08:25:52;16.40;99.90
67777;DHT22;54576;52.020;5.536;2023-08-06T08:28:18;16.40;99.90
67777;DHT22;54576;52.020;5.536;2023-08-06T08:30:43;16.40;99.90
67777;DHT22;54576;52.020;5.536;2023-08-06T08:33:09;16.40;99.90
67777;DHT22;54576;52.020;5.536;2023-08-06T08:35:36;16.30;99.90
67777;DHT22;54576;52.020;5.536;2023-08-06T08:38:02;16.30;99.90
67777;DHT22;54576;52.020;5.536;2023-08-06T08:40:32;16.20;99.90
67777;DHT22;54576;52.020;5.536;2023-08-06T08:42:58;16.10;99.90
67777;DHT22;54576;52.020;5.536;2023-08-06T08:45:26;16.00;99.90
67777;DHT22;54576;52.020;5.536;2023-08-06T08:50:21;15.80;99.90
67777;DHT22;54576;52.020;5.536;2023-08-06T08:55:15;15.70;99.90
67777;DHT22;54576;52.020;5.536;2023-08-06T08:57:42;15.60;99.90
67777;DHT22;54576;52.020;5.536;2023-08-06T09:00:08;15.50;99.90
67777;DHT22;54576;52.020;5.536;2023-08-06T09:02:34;15.50;99.90
67777;DHT22;54576;52.020;5.536;2023-08-06T09:05:05;15.50;99.90
67777;DHT22;54576;52.020;5.536;2023-08-06T09:07:35;15.40;99.90
67777;DHT22;54576;52.020;5.536;2023-08-06T09:10:07;15.40;99.90
67777;DHT22;54576;52.020;5.536;2023-08-06T09:12:35;15.50;99.90
67777;DHT22;54576;52.020;5.536;2023-08-06T09:15:01;15.40;99.90
67777;DHT22;54576;52.020;5.536;2023-08-06T09:17:28;15.40;99.90
67777;DHT22;54576;52.020;5.536;2023-08-06T09:19:54;15.30;99.90
67777;DHT22;54576;52.020;5.536;2023-08-06T09:22:20;15.30;99.90
67777;DHT22;54576;52.020;5.536;2023-08-06T09:24:46;15.20;99.90
67777;DHT22;54576;52.020;5.536;2023-08-06T09:27:12;15.20;99.90
67777;DHT22;54576;52.020;5.536;2023-08-06T09:29:43;15.20;99.90
67777;DHT22;54576;52.020;5.536;2023-08-06T09:32:08;15.20;99.90
67777;DHT22;54576;52.020;5.536;2023-08-06T09:34:34;15.20;99.90
67777;DHT22;54576;52.020;5.536;2023-08-06T09:36:59;15.20;99.90
67777;DHT22;54576;52.020;5.536;2023-08-06T09:39:29;15.20;99.90
67777;DHT22;54576;52.020;5.536;2023-08-06T09:42:00;15.20;99.90
67777;DHT22;54576;52.020;5.536;2023-08-06T09:44:27;15.20;99.90
67777;DHT22;54576;52.020;5.536;2023-08-06T09:46:58;15.20;99.90
67777;DHT22;54576;52.020;5.536;2023-08-06T09:49:41;15.30;99.90
67777;DHT22;54576;52.020;5.536;2023-08-06T09:52:13;15.30;99.90
67777;DHT22;54576;52.020;5.536;2023-08-06T09:54:40;15.30;99.90
67777;DHT22;54576;52.020;5.536;2023-08-06T09:57:08;15.30;99.90
67777;DHT22;54576;52.020;5.536;2023-08-06T09:59:34;15.40;99.90
67777;DHT22;54576;52.020;5.536;2023-08-06T10:02:01;15.40;99.90
67777;DHT22;54576;52.020;5.536;2023-08-06T10:04:29;15.40;99.90
67777;DHT22;54576;52.020;5.536;2023-08-06T10:06:54;15.50;99.90
67777;DHT22;54576;52.020;5.536;2023-08-06T10:09:20;15.40;99.90
67777;DHT22;54576;52.020;5.536;2023-08-06T10:14:20;15.40;99.90
67777;DHT22;54576;52.020;5.536;2023-08-06T10:16:47;15.40;99.90
67777;DHT22;54576;52.020;5.536;2023-08-06T10:19:13;15.40;99.90
67777;DHT22;54576;52.020;5.536;2023-08-06T10:21:41;15.40;99.90
67777;DHT22;54576;52.020;5.536;2023-08-06T10:24:13;15.40;99.90
67777;DHT22;54576;52.020;5.536;2023-08-06T10:26:40;15.50;99.90
67777;DHT22;54576;52.020;5.536;2023-08-06T10:29:36;15.50;99.90
67777;DHT22;54576;52.020;5.536;2023-08-06T10:32:03;15.50;99.90
67777;DHT22;54576;52.020;5.536;2023-08-06T10:34:53;15.60;99.90
67777;DHT22;54576;52.020;5.536;2023-08-06T10:37:21;15.60;99.90
67777;DHT22;54576;52.020;5.536;2023-08-06T10:39:51;15.50;99.90
67777;DHT22;54576;52.020;5.536;2023-08-06T10:42:27;15.60;99.90
67777;DHT22;54576;52.020;5.536;2023-08-06T10:45:22;15.60;99.90
67777;DHT22;54576;52.020;5.536;2023-08-06T10:47:53;15.60;99.90
67777;DHT22;54576;52.020;5.536;2023-08-06T10:50:20;15.60;99.90
67777;DHT22;54576;52.020;5.536;2023-08-06T10:52:46;15.60;99.90
67777;DHT22;54576;52.020;5.536;2023-08-06T10:55:13;15.50;99.90
67777;DHT22;54576;52.020;5.536;2023-08-06T10:57:39;15.50;99.90
67777;DHT22;54576;52.020;5.536;2023-08-06T11:00:06;15.60;99.90
67777;DHT22;54576;52.020;5.536;2023-08-06T11:02:34;15.50;99.90
67777;DHT22;54576;52.020;5.536;2023-08-06T11:05:08;15.60;99.90
67777;DHT22;54576;52.020;5.536;2023-08-06T11:07:35;15.60;99.90
67777;DHT22;54576;52.020;5.536;2023-08-06T11:10:08;15.60;99.90
67777;DHT22;54576;52.020;5.536;2023-08-06T11:12:34;15.60;99.90
67777;DHT22;54576;52.020;5.536;2023-08-06T11:15:01;15.60;99.90
67777;DHT22;54576;52.020;5.536;2023-08-06T11:17:28;15.60;99.90
67777;DHT22;54576;52.020;5.536;2023-08-06T11:19:54;15.60;99.90
67777;DHT22;54576;52.020;5.536;2023-08-06T11:22:26;15.60;99.90
67777;DHT22;54576;52.020;5.536;2023-08-06T11:24:53;15.60;99.90
67777;DHT22;54576;52.020;5.536;2023-08-06T11:27:18;15.60;99.90
67777;DHT22;54576;52.020;5.536;2023-08-06T11:29:44;15.60;99.90
67777;DHT22;54576;52.020;5.536;2023-08-06T11:32:11;15.70;99.90
67777;DHT22;54576;52.020;5.536;2023-08-06T11:34:37;15.60;99.90
67777;DHT22;54576;52.020;5.536;2023-08-06T11:37:03;15.60;99.90
67777;DHT22;54576;52.020;5.536;2023-08-06T11:39:35;15.60;99.90
67777;DHT22;54576;52.020;5.536;2023-08-06T11:42:04;15.60;99.90
67777;DHT22;54576;52.020;5.536;2023-08-06T11:44:30;15.50;99.90
67777;DHT22;54576;52.020;5.536;2023-08-06T11:47:02;15.50;99.90
67777;DHT22;54576;52.020;5.536;2023-08-06T11:49:48;15.50;99.90
67777;DHT22;54576;52.020;5.536;2023-08-06T11:52:21;15.50;99.90
67777;DHT22;54576;52.020;5.536;2023-08-06T11:55:02;15.50;99.90
67777;DHT22;54576;52.020;5.536;2023-08-06T11:57:32;15.50;99.90
67777;DHT22;54576;52.020;5.536;2023-08-06T12:00:07;15.60;99.90
67777;DHT22;54576;52.020;5.536;2023-08-06T12:02:33;15.60;99.90
67777;DHT22;54576;52.020;5.536;2023-08-06T12:05:04;15.60;99.90
67777;DHT22;54576;52.020;5.536;2023-08-06T12:07:33;15.70;99.90
67777;DHT22;54576;52.020;5.536;2023-08-06T12:10:02;15.70;99.90
67777;DHT22;54576;52.020;5.536;2023-08-06T12:12:28;15.70;99.90
67777;DHT22;54576;52.020;5.536;2023-08-06T12:14:54;15.70;99.90
67777;DHT22;54576;52.020;5.536;2023-08-06T12:17:20;15.70;99.90
67777;DHT22;54576;52.020;5.536;2023-08-06T12:19:46;15.70;99.90
67777;DHT22;54576;52.020;5.536;2023-08-06T12:22:14;15.70;99.90
67777;DHT22;54576;52.020;5.536;2023-08-06T12:24:44;15.70;99.90
67777;DHT22;54576;52.020;5.536;2023-08-06T12:27:10;15.70;99.90
67777;DHT22;54576;52.020;5.536;2023-08-06T12:29:37;15.70;99.90
67777;DHT22;54576;52.020;5.536;2023-08-06T12:32:05;15.70;99.90
67777;DHT22;54576;52.020;5.536;2023-08-06T12:34:31;15.80;99.90
67777;DHT22;54576;52.020;5.536;2023-08-06T12:36:57;15.80;99.90
67777;DHT22;54576;52.020;5.536;2023-08-06T12:39:22;15.80;99.90
67777;DHT22;54576;52.020;5.536;2023-08-06T12:41:48;15.80;99.90
67777;DHT22;54576;52.020;5.536;2023-08-06T12:44:14;15.80;99.90
67777;DHT22;54576;52.020;5.536;2023-08-06T12:46:40;15.90;99.90
67777;DHT22;54576;52.020;5.536;2023-08-06T12:49:08;15.90;99.90
67777;DHT22;54576;52.020;5.536;2023-08-06T12:51:37;16.00;99.90
67777;DHT22;54576;52.020;5.536;2023-08-06T12:54:02;16.00;99.90
67777;DHT22;54576;52.020;5.536;2023-08-06T12:56:28;15.90;99.90
67777;DHT22;54576;52.020;5.536;2023-08-06T12:58:55;15.90;99.90
67777;DHT22;54576;52.020;5.536;2023-08-06T13:01:21;15.90;99.90
67777;DHT22;54576;52.020;5.536;2023-08-06T13:03:46;15.90;99.90
67777;DHT22;54576;52.020;5.536;2023-08-06T13:06:12;15.90;99.90
67777;DHT22;54576;52.020;5.536;2023-08-06T13:08:38;15.90;99.90
67777;DHT22;54576;52.020;5.536;2023-08-06T13:11:04;15.80;99.90
67777;DHT22;54576;52.020;5.536;2023-08-06T13:13:30;15.90;99.90
67777;DHT22;54576;52.020;5.536;2023-08-06T13:15:58;15.90;99.90
67777;DHT22;54576;52.020;5.536;2023-08-06T13:18:24;16.00;99.90
67777;DHT22;54576;52.020;5.536;2023-08-06T13:20:53;15.90;99.90
67777;DHT22;54576;52.020;5.536;2023-08-06T13:23:19;16.00;99.90
67777;DHT22;54576;52.020;5.536;2023-08-06T13:25:45;16.10;99.90
67777;DHT22;54576;52.020;5.536;2023-08-06T13:28:11;16.10;99.90
67777;DHT22;54576;52.020;5.536;2023-08-06T13:30:36;16.10;99.90
67777;DHT22;54576;52.020;5.536;2023-08-06T13:33:07;16.20;99.90
67777;DHT22;54576;52.020;5.536;2023-08-06T13:35:35;16.20;99.90
67777;DHT22;54576;52.020;5.536;2023-08-06T13:38:01;16.30;99.90
67777;DHT22;54576;52.020;5.536;2023-08-06T13:40:33;16.30;99.90
67777;DHT22;54576;52.020;5.536;2023-08-06T13:42:59;16.40;99.90
67777;DHT22;54576;52.020;5.536;2023-08-06T13:45:25;16.50;99.90
67777;DHT22;54576;52.020;5.536;2023-08-06T13:47:50;16.60;99.90
67777;DHT22;54576;52.020;5.536;2023-08-06T13:50:16;16.60;99.90
67777;DHT22;54576;52.020;5.536;2023-08-06T13:52:42;16.60;99.90
67777;DHT22;54576;52.020;5.536;2023-08-06T13:55:08;16.70;99.90
67777;DHT22;54576;52.020;5.536;2023-08-06T13:57:39;16.80;99.90
67777;DHT22;54576;52.020;5.536;2023-08-06T14:00:05;16.80;99.90
67777;DHT22;54576;52.020;5.536;2023-08-06T14:02:31;16.90;99.90
67777;DHT22;54576;52.020;5.536;2023-08-06T14:04:56;16.90;99.90
67777;DHT22;54576;52.020;5.536;2023-08-06T14:07:22;16.90;99.90
67777;DHT22;54576;52.020;5.536;2023-08-06T14:09:48;17.00;99.90
67777;DHT22;54576;52.020;5.536;2023-08-06T14:12:14;16.90;99.90
67777;DHT22;54576;52.020;5.536;2023-08-06T14:14:40;16.90;99.90
67777;DHT22;54576;52.020;5.536;2023-08-06T14:17:06;17.00;99.90
67777;DHT22;54576;52.020;5.536;2023-08-06T14:19:31;17.00;99.90
67777;DHT22;54576;52.020;5.536;2023-08-06T14:21:57;17.00;99.90
67777;DHT22;54576;52.020;5.536;2023-08-06T14:24:23;17.00;99.90
67777;DHT22;54576;52.020;5.536;2023-08-06T14:26:48;17.00;99.90
67777;DHT22;54576;52.020;5.536;2023-08-06T14:29:14;17.10;99.90
67777;DHT22;54576;52.020;5.536;2023-08-06T14:31:42;17.10;99.90
67777;DHT22;54576;52.020;5.536;2023-08-06T14:34:08;17.10;99.90
67777;DHT22;54576;52.020;5.536;2023-08-06T14:36:33;17.10;99.90
67777;DHT22;54576;52.020;5.536;2023-08-06T14:38:59;17.10;99.90
67777;DHT22;54576;52.020;5.536;2023-08-06T14:41:24;17.10;99.90
67777;DHT22;54576;52.020;5.536;2023-08-06T14:43:50;17.20;99.90
67777;DHT22;54576;52.020;5.536;2023-08-06T14:46:16;17.20;99.90
67777;DHT22;54576;52.020;5.536;2023-08-06T14:48:41;17.20;99.90
67777;DHT22;54576;52.020;5.536;2023-08-06T14:51:10;17.30;99.90
67777;DHT22;54576;52.020;5.536;2023-08-06T14:53:35;17.40;99.90
67777;DHT22;54576;52.020;5.536;2023-08-06T14:56:01;17.40;99.90
67777;DHT22;54576;52.020;5.536;2023-08-06T14:58:26;17.40;99.90
67777;DHT22;54576;52.020;5.536;2023-08-06T15:00:52;17.30;99.90
67777;DHT22;54576;52.020;5.536;2023-08-06T15:03:18;17.30;99.90
67777;DHT22;54576;52.020;5.536;2023-08-06T15:05:46;17.20;99.90
67777;DHT22;54576;52.020;5.536;2023-08-06T15:08:11;17.30;99.90
67777;DHT22;54576;52.020;5.536;2023-08-06T15:10:37;17.30;99.90
67777;DHT22;54576;52.020;5.536;2023-08-06T15:13:05;17.40;99.90
67777;DHT22;54576;52.020;5.536;2023-08-06T15:15:31;17.40;99.90
67777;DHT22;54576;52.020;5.536;2023-08-06T15:17:57;17.40;99.90
67777;DHT22;54576;52.020;5.536;2023-08-06T15:20:23;17.30;99.90
67777;DHT22;54576;52.020;5.536;2023-08-06T15:22:49;17.40;99.90
67777;DHT22;54576;52.020;5.536;2023-08-06T15:25:15;17.40;99.90
67777;DHT22;54576;52.020;5.536;2023-08-06T15:27:40;17.40;99.90
67777;DHT22;54576;52.020;5.536;2023-08-06T15:30:07;17.30;99.90
67777;DHT22;54576;52.020;5.536;2023-08-06T15:32:32;17.20;99.90
67777;DHT22;54576;52.020;5.536;2023-08-06T15:34:58;17.10;99.90
67777;DHT22;54576;52.020;5.536;2023-08-06T15:37:23;16.90;99.90
67777;DHT22;54576;52.020;5.536;2023-08-06T15:39:49;16.70;99.90
67777;DHT22;54576;52.020;5.536;2023-08-06T15:42:15;16.60;99.90
67777;DHT22;54576;52.020;5.536;2023-08-06T15:44:41;16.60;99.90
67777;DHT22;54576;52.020;5.536;2023-08-06T15:47:06;16.50;99.90
67777;DHT22;54576;52.020;5.536;2023-08-06T15:49:32;16.40;99.90
67777;DHT22;54576;52.020;5.536;2023-08-06T15:51:57;16.50;99.90
67777;DHT22;54576;52.020;5.536;2023-08-06T15:54:23;16.50;99.90
67777;DHT22;54576;52.020;5.536;2023-08-06T15:56:49;16.50;99.90
67777;DHT22;54576;52.020;5.536;2023-08-06T16:01:50;16.40;99.90
67777;DHT22;54576;52.020;5.536;2023-08-06T16:04:16;16.40;99.90
67777;DHT22;54576;52.020;5.536;2023-08-06T16:06:42;16.40;99.90
67777;DHT22;54576;52.020;5.536;2023-08-06T16:09:07;16.40;99.90
67777;DHT22;54576;52.020;5.536;2023-08-06T16:11:33;16.30;99.90
67777;DHT22;54576;52.020;5.536;2023-08-06T16:13:59;16.20;99.90
67777;DHT22;54576;52.020;5.536;2023-08-06T16:16:25;16.20;99.90
67777;DHT22;54576;52.020;5.536;2023-08-06T16:18:50;16.20;99.90
67777;DHT22;54576;52.020;5.536;2023-08-06T16:21:16;16.20;99.90
67777;DHT22;54576;52.020;5.536;2023-08-06T16:23:41;16.20;99.90
67777;DHT22;54576;52.020;5.536;2023-08-06T16:26:07;16.10;99.90
67777;DHT22;54576;52.020;5.536;2023-08-06T16:28:33;16.10;99.90
67777;DHT22;54576;52.020;5.536;2023-08-06T16:30:58;16.00;99.90
67777;DHT22;54576;52.020;5.536;2023-08-06T16:33:24;16.10;99.90
67777;DHT22;54576;52.020;5.536;2023-08-06T16:35:49;16.00;99.90
67777;DHT22;54576;52.020;5.536;2023-08-06T16:38:15;16.00;99.90
67777;DHT22;54576;52.020;5.536;2023-08-06T16:40:42;16.00;99.90
67777;DHT22;54576;52.020;5.536;2023-08-06T16:43:07;16.00;99.90
67777;DHT22;54576;52.020;5.536;2023-08-06T16:45:36;16.00;99.90
67777;DHT22;54576;52.020;5.536;2023-08-06T16:50:30;16.00;99.90
67777;DHT22;54576;52.020;5.536;2023-08-06T16:52:55;16.00;99.90
67777;DHT22;54576;52.020;5.536;2023-08-06T16:55:22;16.00;99.90
67777;DHT22;54576;52.020;5.536;2023-08-06T16:57:48;15.90;99.90
67777;DHT22;54576;52.020;5.536;2023-08-06T17:00:13;15.90;99.90
67777;DHT22;54576;52.020;5.536;2023-08-06T17:02:39;15.90;99.90
67777;DHT22;54576;52.020;5.536;2023-08-06T17:05:08;15.90;99.90
67777;DHT22;54576;52.020;5.536;2023-08-06T17:07:34;15.80;99.90
67777;DHT22;54576;52.020;5.536;2023-08-06T17:09:59;15.80;99.90
67777;DHT22;54576;52.020;5.536;2023-08-06T17:12:25;15.80;99.90
67777;DHT22;54576;52.020;5.536;2023-08-06T17:14:51;15.80;99.90
67777;DHT22;54576;52.020;5.536;2023-08-06T17:17:17;15.80;99.90
67777;DHT22;54576;52.020;5.536;2023-08-06T17:19:43;15.80;99.90
67777;DHT22;54576;52.020;5.536;2023-08-06T17:22:09;15.80;99.90
67777;DHT22;54576;52.020;5.536;2023-08-06T17:24:36;15.70;99.90
67777;DHT22;54576;52.020;5.536;2023-08-06T17:27:02;15.70;99.90
67777;DHT22;54576;52.020;5.536;2023-08-06T17:29:28;15.60;99.90
67777;DHT22;54576;52.020;5.536;2023-08-06T17:31:54;15.60;99.90
67777;DHT22;54576;52.020;5.536;2023-08-06T17:36:47;15.30;99.90
67777;DHT22;54576;52.020;5.536;2023-08-06T17:39:13;15.30;99.90
67777;DHT22;54576;52.020;5.536;2023-08-06T17:41:38;15.20;99.90
67777;DHT22;54576;52.020;5.536;2023-08-06T17:44:04;15.20;99.90
67777;DHT22;54576;52.020;5.536;2023-08-06T17:46:30;15.10;99.90
67777;DHT22;54576;52.020;5.536;2023-08-06T17:48:55;15.10;99.90
67777;DHT22;54576;52.020;5.536;2023-08-06T17:51:22;15.10;99.90
67777;DHT22;54576;52.020;5.536;2023-08-06T17:53:48;15.10;99.90
67777;DHT22;54576;52.020;5.536;2023-08-06T17:56:14;15.10;99.90
67777;DHT22;54576;52.020;5.536;2023-08-06T17:58:41;15.10;99.90
67777;DHT22;54576;52.020;5.536;2023-08-06T18:01:07;15.10;99.90
67777;DHT22;54576;52.020;5.536;2023-08-06T18:03:32;15.10;99.90
67777;DHT22;54576;52.020;5.536;2023-08-06T18:05:59;15.10;99.90
67777;DHT22;54576;52.020;5.536;2023-08-06T18:08:25;15.10;99.90
67777;DHT22;54576;52.020;5.536;2023-08-06T18:10:53;15.10;99.90
67777;DHT22;54576;52.020;5.536;2023-08-06T18:13:20;15.10;99.90
67777;DHT22;54576;52.020;5.536;2023-08-06T18:15:45;15.10;99.90
67777;DHT22;54576;52.020;5.536;2023-08-06T18:18:11;15.00;99.90
67777;DHT22;54576;52.020;5.536;2023-08-06T18:20:37;15.10;99.90
67777;DHT22;54576;52.020;5.536;2023-08-06T18:23:06;15.10;99.90
67777;DHT22;54576;52.020;5.536;2023-08-06T18:25:32;15.10;99.90
67777;DHT22;54576;52.020;5.536;2023-08-06T18:27:58;15.10;99.90
67777;DHT22;54576;52.020;5.536;2023-08-06T18:30:24;15.10;99.90
67777;DHT22;54576;52.020;5.536;2023-08-06T18:32:49;15.10;99.90
67777;DHT22;54576;52.020;5.536;2023-08-06T18:35:15;15.10;99.90
67777;DHT22;54576;52.020;5.536;2023-08-06T18:37:41;15.10;99.90
67777;DHT22;54576;52.020;5.536;2023-08-06T18:40:07;15.10;99.90
67777;DHT22;54576;52.020;5.536;2023-08-06T18:42:33;15.10;99.90
67777;DHT22;54576;52.020;5.536;2023-08-06T18:44:59;15.00;99.90
67777;DHT22;54576;52.020;5.536;2023-08-06T18:47:25;15.00;99.90
67777;DHT22;54576;52.020;5.536;2023-08-06T18:49:51;14.90;99.90
67777;DHT22;54576;52.020;5.536;2023-08-06T18:52:16;15.00;99.90
67777;DHT22;54576;52.020;5.536;2023-08-06T18:54:42;14.90;99.90
67777;DHT22;54576;52.020;5.536;2023-08-06T18:57:08;14.80;99.90
67777;DHT22;54576;52.020;5.536;2023-08-06T18:59:34;14.80;99.90
67777;DHT22;54576;52.020;5.536;2023-08-06T19:02:01;14.80;99.90
67777;DHT22;54576;52.020;5.536;2023-08-06T19:04:26;14.70;99.90
67777;DHT22;54576;52.020;5.536;2023-08-06T19:06:52;14.70;99.90
67777;DHT22;54576;52.020;5.536;2023-08-06T19:09:18;14.70;99.90
67777;DHT22;54576;52.020;5.536;2023-08-06T19:11:44;14.70;99.90
67777;DHT22;54576;52.020;5.536;2023-08-06T19:14:09;14.70;99.90
67777;DHT22;54576;52.020;5.536;2023-08-06T19:16:37;14.60;99.90
67777;DHT22;54576;52.020;5.536;2023-08-06T19:19:02;14.60;99.90
67777;DHT22;54576;52.020;5.536;2023-08-06T19:21:28;14.60;99.90
67777;DHT22;54576;52.020;5.536;2023-08-06T19:23:54;14.60;99.90
67777;DHT22;54576;52.020;5.536;2023-08-06T19:26:19;14.50;99.90
67777;DHT22;54576;52.020;5.536;2023-08-06T19:28:45;14.50;99.90
67777;DHT22;54576;52.020;5.536;2023-08-06T19:31:11;14.50;99.90
67777;DHT22;54576;52.020;5.536;2023-08-06T19:33:36;14.50;99.90
67777;DHT22;54576;52.020;5.536;2023-08-06T19:36:02;14.50;99.90
67777;DHT22;54576;52.020;5.536;2023-08-06T19:38:28;14.40;99.90
67777;DHT22;54576;52.020;5.536;2023-08-06T19:41:04;14.40;99.90
67777;DHT22;54576;52.020;5.536;2023-08-06T19:43:30;14.40;99.90
67777;DHT22;54576;52.020;5.536;2023-08-06T19:45:56;14.40;99.90
67777;DHT22;54576;52.020;5.536;2023-08-06T19:48:23;14.40;99.90
67777;DHT22;54576;52.020;5.536;2023-08-06T19:50:53;14.40;99.90
67777;DHT22;54576;52.020;5.536;2023-08-06T19:53:20;14.40;99.90
67777;DHT22;54576;52.020;5.536;2023-08-06T19:55:46;14.40;99.90
67777;DHT22;54576;52.020;5.536;2023-08-06T19:58:15;14.30;99.90
67777;DHT22;54576;52.020;5.536;2023-08-06T20:00:40;14.30;99.90
67777;DHT22;54576;52.020;5.536;2023-08-06T20:03:06;14.40;99.90
67777;DHT22;54576;52.020;5.536;2023-08-06T20:05:33;14.30;99.90
67777;DHT22;54576;52.020;5.536;2023-08-06T20:07:59;14.30;99.90
67777;DHT22;54576;52.020;5.536;2023-08-06T20:10:24;14.30;99.90
67777;DHT22;54576;52.020;5.536;2023-08-06T20:12:50;14.30;99.90
67777;DHT22;54576;52.020;5.536;2023-08-06T20:15:15;14.30;99.90
67777;DHT22;54576;52.020;5.536;2023-08-06T20:17:41;14.30;99.90
67777;DHT22;54576;52.020;5.536;2023-08-06T20:20:07;14.30;99.90
67777;DHT22;54576;52.020;5.536;2023-08-06T20:22:34;14.20;99.90
67777;DHT22;54576;52.020;5.536;2023-08-06T20:25:00;14.20;99.90